LSMM 200020Z AUTO 00000KT 9999NDV SCT130 12/12 Q1026 RMK LSMM 192320Z AUTO VRB02KT 1100NDV R10/2000D R28/0700D FG SCT001 11/11 Q1026 RMK LSMM 192220Z AUTO 00000KT 6000NDV BCFG FEW130 13/13 Q1026 RMK LSMM 192150Z AUTO 00000KT 0550NDV R10/0650D R28/0800VP2000U BCFG FEW130 12/12 Q1026 RMK LSMM 192120Z AUTO 00000KT 0750NDV R10/0750V1100D R28/P2000N BCFG FEW002 13/13 Q1026 RMK LSMM 192050Z AUTO VRB02KT 1000NDV R10/0700VP2000D R28/0800D BCFG FEW003 13/13 Q1026 RMK LSMM 192020Z AUTO 00000KT 9999NDV FEW002 14/14 Q1026 RMK LSMM 191950Z AUTO 00000KT 9999NDV NCD 14/14 Q1026 RMK LSMM 191920Z AUTO VRB02KT 9999NDV NCD 15/15 Q1026 RMK LSMM 191850Z AUTO 00000KT 9999NDV NCD 16/16 Q1026 RMK LSMM 191820Z AUTO VRB02KT 9999NDV NCD 17/16 Q1026 RMK LSMM 191750Z AUTO 08004KT 010V170 9999NDV FEW110 19/16 Q1026 RMK LSMM 191720Z AUTO 07010KT 9999NDV -SHRA FEW009 SCT020 18/16 Q1026 RESHRA RMK LSMM 191650Z AUTO VRB02KT 8000NDV SHRA FEW009 SCT025 BKN060 16/16 Q1027 RMK LSMM 191620Z AUTO 11005KT 080V140 9999NDV -SHRA FEW010 SCT080 16/16 Q1026 RESHRA RMK LSMM 191550Z AUTO 09004KT 050V180 9999NDV -SHRA FEW009 BKN045 17/16 Q1026 RESHRA RMK LSMM 191520Z AUTO 10007KT 030V170 9999NDV SHRA FEW008 SCT070 BKN080 21/15 Q1025 RMK LSMM 191450Z AUTO VRB06G18KT 9999NDV -SHRA FEW036 SCT084 23/14 Q1023 RMK LSMM 191420Z AUTO 03010KT 340V060 9999NDV FEW087 SCT130 25/14 Q1023 RMK LSMM 191350Z AUTO 02011KT 340V050 9999NDV FEW087 SCT140 25/16 Q1023 RMK LSMM 191320Z AUTO 11006KT 060V160 9999NDV FEW090 SCT130 22/18 Q1023 RMK LSMM 191250Z AUTO 10008KT 040V170 9999NDV -SHRA FEW010 SCT093 22/16 Q1023 RESHRA RMK LSMM 191220Z AUTO 11006KT 040V170 9999NDV -SHRA FEW019 SCT076 20/17 Q1023 RESHRA RMK LSMM 191150Z AUTO 24006KT 200V300 9999NDV SCT090 24/14 Q1023 RMK LSMM 191120Z AUTO VRB01KT 9999NDV FEW095 SCT120 24/15 Q1023 RMK LSMM 191050Z AUTO 26005KT 210V330 9999NDV -SHRA FEW042 SCT120 23/16 Q1023 RMK LSMM 191020Z AUTO 26003KT 200V330 9999NDV FEW150 26/16 Q1023 RMK LSMM 190950Z AUTO 25003KT 210V300 9999NDV FEW130 24/15 Q1023 RMK LSMM 190920Z AUTO 29003KT 230V330 9999NDV SCT140 22/15 Q1024 RMK LSMM 190850Z AUTO VRB02KT 9999NDV NCD 22/15 Q1024 RMK LSMM 190820Z AUTO 12004KT 9999NDV FEW069 SCT110 20/15 Q1024 RMK LSMM 190750Z AUTO 09004KT 9999NDV FEW110 SCT160 18/14 Q1025 RMK LSMM 190720Z AUTO 11003KT 070V140 9999NDV FEW089 SCT140 18/15 Q1024 RMK LSMM 190650Z AUTO 00000KT 9999NDV FEW087 SCT100 18/13 Q1024 RMK LSMM 190620Z AUTO VRB02KT 9999NDV SCT092 16/13 Q1024 RMK LSMM 190550Z AUTO VRB02KT 9999NDV SCT096 15/12 Q1024 RMK LSMM 190520Z AUTO 10004KT 070V140 9999NDV SCT099 13/13 Q1024 RMK LSMM 190450Z AUTO 00000KT 9999NDV NCD 13/12 Q1024 RMK LSMM 190420Z AUTO VRB02KT 9999NDV NCD 12/12 Q1023 RMK LSMM 190350Z AUTO 13003KT 050V210 9999NDV NCD 13/11 Q1023 RMK LSMM 190320Z AUTO VRB01KT 9999NDV NCD 13/12 Q1023 RMK LSMM 190250Z AUTO 07002KT 9999NDV NCD 13/13 Q1023 RMK LSMM 190150Z AUTO VRB01KT 9999NDV FEW074 14/12 Q1023 RMK LSMM 190120Z AUTO 00000KT 9999NDV SCT074 SCT100 14/13 Q1023 RMK LSMM 190050Z AUTO 09002KT 9999NDV SCT072 BKN100 14/12 Q1022 RMK LSMM 190020Z AUTO 00000KT 9999NDV FEW071 15/12 Q1022 RMK LSMM 182350Z AUTO 00000KT 9999NDV NCD 15/12 Q1022 RMK LSMM 182320Z AUTO 09004KT 050V120 9999NDV NCD 14/12 Q1022 RMK LSMM 182250Z AUTO 10003KT 070V140 9999NDV FEW079 14/12 Q1022 RMK LSMM 182220Z AUTO 00000KT 9999NDV NCD 16/12 Q1022 RMK LSMM 182150Z AUTO 13003KT 9999NDV NCD 16/12 Q1022 RMK LSMM 182120Z AUTO 10005KT 9999NDV NCD 17/13 Q1022 RMK LSMM 182050Z AUTO 09006KT 060V130 9999NDV NCD 17/13 Q1021 RMK LSMM 182020Z AUTO 10006KT 9999NDV NCD 18/13 Q1021 RMK LSMM 181950Z AUTO 10006KT 9999NDV NCD 17/13 Q1021 RMK LSMM 181920Z AUTO 10005KT 9999NDV NCD 20/13 Q1021 RMK LSMM 181850Z AUTO 04009KT 010V070 9999NDV NCD 24/12 Q1021 RMK LSMM 181820Z AUTO 05009KT 020V080 9999NDV NCD 24/12 Q1020 RMK LSMM 181750Z AUTO 03009KT 360V070 9999NDV NCD 25/12 Q1020 RMK LSMM 181720Z AUTO 03008KT 340V080 9999NDV NCD 26/12 Q1020 RMK LSMM 181650Z AUTO 02007KT 330V080 9999NDV NCD 26/12 Q1020 RMK LSMM 181620Z AUTO 06009KT 350V110 9999NDV NCD 26/13 Q1020 RMK LSMM 181550Z AUTO 03006G18KT 300V090 9999NDV NCD 26/12 Q1020 RMK LSMM 181520Z AUTO 03008KT 330V140 9999NDV NCD 26/12 Q1020 RMK LSMM 181450Z AUTO VRB07KT 9999NDV FEW230 27/13 Q1020 LSMM 181420Z 06011KT 020V100 CAVOK 26/12 Q1020 RMK BLU LSMM 181350Z 06010KT 360V110 CAVOK 26/13 Q1020 RMK BLU LSMM 181320Z VRB09G20KT 9999 FEW065 26/13 Q1021 RMK BLU+ LSMM 181250Z 05012KT 330V110 9999 FEW065 26/13 Q1021 RMK BLU+

METAR Messwerte "MEIRINGEN" LSMM

Zurück zur Übersicht

Ortsname
Ländercode / m ü. NN
Zeit Temperatur Taupunkt Rel.
Luftfeuchte
Luftdruck:
Altimeter
NN
Station
Wind in Beaufort
(Knoten)
Sichtweite
(Meter)
Wolken
(Meter über Grund)
Wettererscheinung
MEIRINGEN
CH 570
Fr 20.05. 02:201212100 %1026
1027
959
Windstill Wolkig (4000) 
MEIRINGEN
CH 570
Fr 20.05. 01:201111100 %1026
1027
959
Uml 1 (2) Wolkig (30)Nebel
MEIRINGEN
CH 570
Fr 20.05. 00:201313100 %1026
1027
959
Windstill Leicht bewölkt (4000)Nebel-Bänke
MEIRINGEN
CH 570
Do 19.05. 23:501212100 %1026
1027
959
Windstill Leicht bewölkt (4000)Nebel-Bänke
MEIRINGEN
CH 570
Do 19.05. 23:201313100 %1026
1027
959
Windstill Leicht bewölkt (61)Nebel-Bänke
MEIRINGEN
CH 570
Do 19.05. 22:501313100 %1026
1027
959
Uml 1 (2) Leicht bewölkt (91)Nebel-Bänke
MEIRINGEN
CH 570
Do 19.05. 22:201414100 %1026
1026
959
Windstill Leicht bewölkt (61) 
MEIRINGEN
CH 570
Do 19.05. 21:501414100 %1026
1026
959
Windstill   
MEIRINGEN
CH 570
Do 19.05. 21:201515100 %1026
1026
959
Uml 1 (2)   
MEIRINGEN
CH 570
Do 19.05. 20:501616100 %1026
1026
959
Windstill   
MEIRINGEN
CH 570
Do 19.05. 20:20171694 %1026
1026
959
Uml 1 (2)   
MEIRINGEN
CH 570
Do 19.05. 19:50191683 %1026
1025
959
O 2 (4)
N - S
 Leicht bewölkt (3400) 
MEIRINGEN
CH 570
Do 19.05. 19:20181688 %1026
1025
959
ONO 3 (10) Wolkig (610)
Leicht bewölkt (270)
Regen-Schauer (schwach)
MEIRINGEN
CH 570
Do 19.05. 18:501616100 %1027
1027
960
Uml 1 (2) Stark bewölkt (1800)
Wolkig (760)
Leicht bewölkt (270)
Regen-Schauer
MEIRINGEN
CH 570
Do 19.05. 18:201616100 %1026
1026
959
OSO 2 (5)
O - SO
 Wolkig (2400)
Leicht bewölkt (300)
Regen-Schauer (schwach)
MEIRINGEN
CH 570
Do 19.05. 17:50171694 %1026
1026
959
O 2 (4)
NO - S
 Stark bewölkt (1400)
Leicht bewölkt (270)
Regen-Schauer (schwach)
MEIRINGEN
CH 570
Do 19.05. 17:20211569 %1025
1024
958
O 3 (7)
NNO - S
 Stark bewölkt (2400)
Wolkig (2100)
Leicht bewölkt (240)
Regen-Schauer
MEIRINGEN
CH 570
Do 19.05. 16:50231457 %1023
1021
956
Uml 2 (6) - 5 (18) Wolkig (2600)
Leicht bewölkt (1100)
Regen-Schauer (schwach)
MEIRINGEN
CH 570
Do 19.05. 16:20251450 %1023
1021
956
NNO 3 (10)
NNW - ONO
 Wolkig (4000)
Leicht bewölkt (2700)
 
MEIRINGEN
CH 570
Do 19.05. 15:50251657 %1023
1021
956
NNO 4 (11)
NNW - NO
 Wolkig (4300)
Leicht bewölkt (2700)
 
MEIRINGEN
CH 570
Do 19.05. 15:20221878 %1023
1021
956
OSO 2 (6)
ONO - SSO
 Wolkig (4000)
Leicht bewölkt (2700)
 
MEIRINGEN
CH 570
Do 19.05. 14:50221669 %1023
1021
956
O 3 (8)
NO - S
 Wolkig (2800)
Leicht bewölkt (300)
Regen-Schauer (schwach)
MEIRINGEN
CH 570
Do 19.05. 14:20201783 %1023
1022
956
OSO 2 (6)
NO - S
 Wolkig (2300)
Leicht bewölkt (580)
Regen-Schauer (schwach)
MEIRINGEN
CH 570
Do 19.05. 13:50241454 %1023
1021
956
WSW 2 (6)
SSW - WNW
 Wolkig (2700) 
MEIRINGEN
CH 570
Do 19.05. 13:20241557 %1023
1021
956
Uml 1 (1) Wolkig (3700)
Leicht bewölkt (2900)
 
MEIRINGEN
CH 570
Do 19.05. 12:50231665 %1023
1021
956
W 2 (5)
SSW - NNW
 Wolkig (3700)
Leicht bewölkt (1300)
Regen-Schauer (schwach)
MEIRINGEN
CH 570
Do 19.05. 12:20261654 %1023
1021
956
W 2 (3)
SSW - NNW
 Leicht bewölkt (4600) 
MEIRINGEN
CH 570
Do 19.05. 11:50241557 %1023
1021
956
WSW 2 (3)
SSW - WNW
 Leicht bewölkt (4000) 
MEIRINGEN
CH 570
Do 19.05. 11:20221565 %1024
1022
957
WNW 2 (3)
SW - NNW
 Wolkig (4300) 
MEIRINGEN
CH 570
Do 19.05. 10:50221565 %1024
1022
957
Uml 1 (2)   
MEIRINGEN
CH 570
Do 19.05. 10:20201573 %1024
1023
957
OSO 2 (4) Wolkig (3400)
Leicht bewölkt (2100)
 
MEIRINGEN
CH 570
Do 19.05. 09:50181477 %1025
1024
958
O 2 (4) Wolkig (4900)
Leicht bewölkt (3400)
 
MEIRINGEN
CH 570
Do 19.05. 09:20181583 %1024
1023
957
OSO 2 (3)
ONO - SO
 Wolkig (4300)
Leicht bewölkt (2700)
 
MEIRINGEN
CH 570
Do 19.05. 08:50181373 %1024
1023
957
Windstill Wolkig (3000)
Leicht bewölkt (2700)
 
MEIRINGEN
CH 570
Do 19.05. 08:20161382 %1024
1024
957
Uml 1 (2) Wolkig (2800) 
MEIRINGEN
CH 570
Do 19.05. 07:50151282 %1024
1024
957
Uml 1 (2) Wolkig (2900) 
MEIRINGEN
CH 570
Do 19.05. 07:201313100 %1024
1025
957
O 2 (4)
ONO - SO
 Wolkig (3000) 
MEIRINGEN
CH 570
Do 19.05. 06:50131294 %1024
1025
957
Windstill   
MEIRINGEN
CH 570
Do 19.05. 06:201212100 %1023
1024
956
Uml 1 (2)   
MEIRINGEN
CH 570
Do 19.05. 05:50131188 %1023
1024
956
SO 2 (3)
NO - SSW
   
MEIRINGEN
CH 570
Do 19.05. 05:20131294 %1023
1024
956
Uml 1 (1)   
MEIRINGEN
CH 570
Do 19.05. 04:501313100 %1023
1024
956
ONO 1 (2)   
MEIRINGEN
CH 570
Do 19.05. 03:50141288 %1023
1023
956
Uml 1 (1) Leicht bewölkt (2300) 
MEIRINGEN
CH 570
Do 19.05. 03:20141394 %1023
1023
956
Windstill Wolkig (3000)
Wolkig (2300)
 
MEIRINGEN
CH 570
Do 19.05. 02:50141288 %1022
1022
955
O 1 (2) Stark bewölkt (3000)
Wolkig (2200)
 
MEIRINGEN
CH 570
Do 19.05. 02:20151282 %1022
1022
955
Windstill Leicht bewölkt (2200) 
MEIRINGEN
CH 570
Do 19.05. 01:50151282 %1022
1022
955
Windstill   
MEIRINGEN
CH 570
Do 19.05. 01:20141288 %1022
1022
955
O 2 (4)
NO - OSO
   
MEIRINGEN
CH 570
Do 19.05. 00:50141288 %1022
1022
955
O 2 (3)
ONO - SO
 Leicht bewölkt (2400) 
MEIRINGEN
CH 570
Do 19.05. 00:20161277 %1022
1022
955
Windstill   
MEIRINGEN
CH 570
Mi 18.05. 23:50161277 %1022
1022
955
SO 2 (3)   
MEIRINGEN
CH 570
Mi 18.05. 23:20171377 %1022
1022
955
O 2 (5)   
MEIRINGEN
CH 570
Mi 18.05. 22:50171377 %1021
1021
954
O 2 (6)
ONO - SO
   
MEIRINGEN
CH 570
Mi 18.05. 22:20181373 %1021
1020
954
O 2 (6)   
MEIRINGEN
CH 570
Mi 18.05. 21:50171377 %1021
1021
954
O 2 (6)   
MEIRINGEN
CH 570
Mi 18.05. 21:20201364 %1021
1020
954
O 2 (5)   
MEIRINGEN
CH 570
Mi 18.05. 20:50241247 %1021
1019
954
NO 3 (9)
N - ONO
   
MEIRINGEN
CH 570
Mi 18.05. 20:20241247 %1020
1018
953
NO 3 (9)
NNO - O
   
MEIRINGEN
CH 570
Mi 18.05. 19:50251244 %1020
1018
953
NNO 3 (9)
N - ONO
   
MEIRINGEN
CH 570
Mi 18.05. 19:20261242 %1020
1018
953
NNO 3 (8)
NNW - O
   
MEIRINGEN
CH 570
Mi 18.05. 18:50261242 %1020
1018
953
NNO 3 (7)
NNW - O
   
MEIRINGEN
CH 570
Mi 18.05. 18:20261345 %1020
1018
953
ONO 3 (9)
N - OSO
   
MEIRINGEN
CH 570
Mi 18.05. 17:50261242 %1020
1018
953
NNO 2 (6) - 5 (18)
WNW - O
   
MEIRINGEN
CH 570
Mi 18.05. 17:20261242 %1020
1018
953
NNO 3 (8)
NNW - SO
   
MEIRINGEN
CH 570
Mi 18.05. 16:50271342 %1020
1017
953
Uml 3 (7) Leicht bewölkt (7000) 
MEIRINGEN
CH 570
Mi 18.05. 16:20261242 %1020
1018
953
ONO 4 (11)
NNO - O
>= 10000Nicht signifikant 
MEIRINGEN
CH 570
Mi 18.05. 15:50261345 %1020
1018
953
ONO 3 (10)
N - OSO
>= 10000Nicht signifikant 
MEIRINGEN
CH 570
Mi 18.05. 15:20261345 %1021
1019
954
Uml 3 (9) - 5 (20)>= 10000Leicht bewölkt (2000) 
MEIRINGEN
CH 570
Mi 18.05. 14:50261345 %1021
1019
954
NO 4 (12)
NNW - OSO
>= 10000Leicht bewölkt (2000) 

Altimeter: Einstellung am Altimeter (Höhenmesser), die Höhe 0 muss auf diesen Luftdruckwert zeigen, damit das Gerät die Stationshöhe richtig anzeigt.

NN: Luftdruck reduziert auf "Normal Null", auf Meereshöhe, dieser von der Temperatur abhängige Wert wird bisweilen unkorrekt einfach als "Luftdruck" bezeichnet. Eigentlich nur eine fiktive Größe, die es erlaubt, Stationen auf unterschiedlichen Höhen miteinander zu vergleichen.

Station: Realer Luftdruck an der Station.